NORTHEAST SUFFOLK  -  Winter Weather Advisory Winter Weather Advisory        NORTHERN NASSAU  -  Winter Weather Advisory Winter Weather Advisory        NORTHWEST SUFFOLK  -  Winter Weather Advisory Winter Weather Advisory        SOUTHEAST SUFFOLK  -  Winter Weather Advisory Winter Weather Advisory        SOUTHERN NASSAU  -  Winter Weather Advisory Winter Weather Advisory        SOUTHWEST SUFFOLK  -  Winter Weather Advisory Winter Weather Advisory      

Active alerts

Northern Nassau
  Details for Northern Nassau Winter Weather Advisory
Southern Nassau
  Details for Southern Nassau Winter Weather Advisory
Northwest Suffolk
  Details for Northwest Suffolk Winter Weather Advisory
Southwest Suffolk
  Details for Southwest Suffolk Winter Weather Advisory
Northeast Suffolk
  Details for Northeast Suffolk Winter Weather Advisory
Southeast Suffolk
  Details for Southeast Suffolk Winter Weather Advisory


WXM80 ListenWXM80 Stop

You find our weather info also at:

UK Metoffice

WeatherCloud

Weather Underground

Northeastern Weather Network

AWEKAS

Citizen Weather Observer Program (CWOP)

HAMweather, WeatherForYou, PWS Weather


Weather Underground History page Text

Daily Summary for January 11, 2017 Units:  Both    English   Metric
« Previous Day
Next Day »
Daily Weekly Monthly Yearly Custom
  High: Low: Average:
Temperature: 53.4 °F /  11.9 °C 43.7 °F /  6.5 °C 47.2 °F /  8.4 °C
Dew Point: 45.7 °F /  7.6 °C 40.0 °F /  4.4 °C 42.4 °F /  5.8 °C
Humidity: 96 % 64 % 84 %
Wind Speed: 14.5 mph /  23.3 km/h - 3.6 mph /  5.8 km/h
Wind Gust: 22.0 mph /  35.4 km/h - -
Wind:- - SSW
Pressure: 30.30 in /  1026 hPa 30.13 in /  1020.2 hPa -
Precipitation: 0.19 in /  4.83 mm    
Historical Graphs
 
 
Tabular Data for January 11, 2017
Time Temperature Dew Point Pressure Wind Wind Speed Wind Gust Humidity Rainfall Rate (Hourly)
00:00 45.6 °F /  7.6 °C 41.4 °F /  5.2 °C 30.18 in /  1021.9 hPa South 5.2 mph /  8.4 km/h 9.2 mph /  14.8 km/h 85 % 0.00 in /  0 mm
00:05 45.7 °F /  7.6 °C 41.4 °F /  5.2 °C 30.17 in /  1021.6 hPa SSW 4.3 mph /  6.9 km/h 11.5 mph /  18.5 km/h 85 % 0.00 in /  0 mm
00:10 45.8 °F /  7.7 °C 41.5 °F /  5.3 °C 30.17 in /  1021.6 hPa South 5.5 mph /  8.9 km/h 7.0 mph /  11.3 km/h 85 % 0.00 in /  0 mm
00:15 45.8 °F /  7.7 °C 41.5 °F /  5.3 °C 30.17 in /  1021.6 hPa SSW 5.8 mph /  9.3 km/h 12.7 mph /  20.4 km/h 85 % 0.00 in /  0 mm
00:20 45.8 °F /  7.7 °C 41.5 °F /  5.3 °C 30.17 in /  1021.6 hPa South 5.1 mph /  8.2 km/h 8.0 mph /  12.9 km/h 85 % 0.00 in /  0 mm
00:25 45.9 °F /  7.7 °C 41.6 °F /  5.3 °C 30.16 in /  1021.2 hPa South 6.1 mph /  9.8 km/h 11.5 mph /  18.5 km/h 85 % 0.00 in /  0 mm
00:30 45.9 °F /  7.7 °C 41.6 °F /  5.3 °C 30.16 in /  1021.2 hPa South 4.5 mph /  7.2 km/h 8.0 mph /  12.9 km/h 85 % 0.00 in /  0 mm
00:36 46.0 °F /  7.8 °C 41.7 °F /  5.4 °C 30.16 in /  1021.2 hPa SSW 3.9 mph /  6.3 km/h 8.1 mph /  13 km/h 85 % 0.00 in /  0 mm
00:41 46.0 °F /  7.8 °C 41.7 °F /  5.4 °C 30.16 in /  1021.2 hPa SSW 3.9 mph /  6.3 km/h 6.9 mph /  11.1 km/h 85 % 0.00 in /  0 mm
00:46 46.1 °F /  7.8 °C 41.8 °F /  5.4 °C 30.16 in /  1021.2 hPa SSW 6.4 mph /  10.3 km/h 11.5 mph /  18.5 km/h 85 % 0.00 in /  0 mm
00:51 46.1 °F /  7.8 °C 41.8 °F /  5.4 °C 30.16 in /  1021.2 hPa SSW 3.4 mph /  5.5 km/h 6.9 mph /  11.1 km/h 85 % 0.00 in /  0 mm
00:56 46.1 °F /  7.8 °C 41.8 °F /  5.4 °C 30.16 in /  1021.2 hPa South 0.7 mph /  1.1 km/h 5.0 mph /  8 km/h 85 % 0.00 in /  0 mm
01:01 46.2 °F /  7.9 °C 42.2 °F /  5.7 °C 30.16 in /  1021.2 hPa SSW 5.6 mph /  9 km/h 7.0 mph /  11.3 km/h 86 % 0.00 in /  0 mm
01:06 46.2 °F /  7.9 °C 42.2 °F /  5.7 °C 30.16 in /  1021.2 hPa SW 3.9 mph /  6.3 km/h 6.9 mph /  11.1 km/h 86 % 0.00 in /  0 mm
01:11 46.2 °F /  7.9 °C 42.2 °F /  5.7 °C 30.16 in /  1021.2 hPa SSW 3.4 mph /  5.5 km/h 5.8 mph /  9.3 km/h 86 % 0.00 in /  0 mm
01:16 46.2 °F /  7.9 °C 42.5 °F /  5.8 °C 30.16 in /  1021.2 hPa South 4.1 mph /  6.6 km/h 6.9 mph /  11.1 km/h 87 % 0.00 in /  0 mm
01:21 46.2 °F /  7.9 °C 42.5 °F /  5.8 °C 30.17 in /  1021.6 hPa SW 4.6 mph /  7.4 km/h 8.0 mph /  12.9 km/h 87 % 0.00 in /  0 mm
01:26 46.2 °F /  7.9 °C 42.5 °F /  5.8 °C 30.17 in /  1021.6 hPa SW 2.9 mph /  4.7 km/h 6.9 mph /  11.1 km/h 87 % 0.00 in /  0 mm
01:31 46.2 °F /  7.9 °C 42.8 °F /  6 °C 30.17 in /  1021.6 hPa SSW 3.8 mph /  6.1 km/h 6.0 mph /  9.7 km/h 88 % 0.00 in /  0 mm
01:36 46.2 °F /  7.9 °C 43.1 °F /  6.2 °C 30.18 in /  1021.9 hPa WSW 3.3 mph /  5.3 km/h 6.9 mph /  11.1 km/h 89 % 0.00 in /  0 mm
01:41 46.1 °F /  7.8 °C 43.0 °F /  6.1 °C 30.18 in /  1021.9 hPa SW 4.2 mph /  6.8 km/h 9.2 mph /  14.8 km/h 89 % 0.00 in /  0 mm
01:47 45.9 °F /  7.7 °C 42.8 °F /  6 °C 30.18 in /  1021.9 hPa SW 1.2 mph /  1.9 km/h 4.6 mph /  7.4 km/h 89 % 0.00 in /  0 mm
01:52 45.8 °F /  7.7 °C 43.0 °F /  6.1 °C 30.18 in /  1021.9 hPa SSW 1.0 mph /  1.6 km/h 4.6 mph /  7.4 km/h 90 % 0.00 in /  0 mm
01:57 45.6 °F /  7.6 °C 42.8 °F /  6 °C 30.19 in /  1022.2 hPa SSW 4.6 mph /  7.4 km/h 7.0 mph /  11.3 km/h 90 % 0.00 in /  0 mm
02:02 45.5 °F /  7.5 °C 43.0 °F /  6.1 °C 30.18 in /  1021.9 hPa WSW 4.3 mph /  6.9 km/h 9.2 mph /  14.8 km/h 91 % 0.00 in /  0 mm
02:07 45.4 °F /  7.4 °C 43.2 °F /  6.2 °C 30.18 in /  1021.9 hPa SW 4.6 mph /  7.4 km/h 6.9 mph /  11.1 km/h 92 % 0.00 in /  0 mm
02:12 45.3 °F /  7.4 °C 43.1 °F /  6.2 °C 30.18 in /  1021.9 hPa WSW 6.5 mph /  10.5 km/h 10.4 mph /  16.7 km/h 92 % 0.00 in /  0 mm
02:17 45.3 °F /  7.4 °C 43.4 °F /  6.3 °C 30.17 in /  1021.6 hPa SSW 6.5 mph /  10.5 km/h 10.4 mph /  16.7 km/h 93 % 0.01 in /  0.25 mm
02:22 45.3 °F /  7.4 °C 43.4 °F /  6.3 °C 30.17 in /  1021.6 hPa SSW 4.5 mph /  7.2 km/h 9.2 mph /  14.8 km/h 93 % 0.01 in /  0.25 mm
02:27 45.3 °F /  7.4 °C 43.7 °F /  6.5 °C 30.17 in /  1021.6 hPa SW 5.6 mph /  9 km/h 15.0 mph /  24.1 km/h 94 % 0.01 in /  0.25 mm
02:32 45.3 °F /  7.4 °C 43.7 °F /  6.5 °C 30.16 in /  1021.2 hPa SSW 6.2 mph /  10 km/h 12.0 mph /  19.3 km/h 94 % 0.01 in /  0.25 mm
02:37 45.3 °F /  7.4 °C 43.7 °F /  6.5 °C 30.17 in /  1021.6 hPa SSW 4.9 mph /  7.9 km/h 9.2 mph /  14.8 km/h 94 % 0.02 in /  0.51 mm
02:42 45.2 °F /  7.3 °C 43.6 °F /  6.4 °C 30.16 in /  1021.2 hPa SSW 7.5 mph /  12.1 km/h 10.4 mph /  16.7 km/h 94 % 0.03 in /  0.76 mm
02:47 45.2 °F /  7.3 °C 43.6 °F /  6.4 °C 30.16 in /  1021.2 hPa SSW 5.8 mph /  9.3 km/h 11.5 mph /  18.5 km/h 94 % 0.03 in /  0.76 mm
02:52 45.1 °F /  7.3 °C 43.5 °F /  6.4 °C 30.16 in /  1021.2 hPa SSW 2.9 mph /  4.7 km/h 5.0 mph /  8 km/h 94 % 0.03 in /  0.76 mm
02:57 45.1 °F /  7.3 °C 43.8 °F /  6.6 °C 30.16 in /  1021.2 hPa SSW 5.5 mph /  8.9 km/h 6.9 mph /  11.1 km/h 95 % 0.04 in /  1.02 mm
03:03 45.1 °F /  7.3 °C 43.8 °F /  6.6 °C 30.15 in /  1020.9 hPa SSW 4.8 mph /  7.7 km/h 10.4 mph /  16.7 km/h 95 % 0.04 in /  1.02 mm
03:08 45.1 °F /  7.3 °C 43.8 °F /  6.6 °C 30.15 in /  1020.9 hPa South 4.7 mph /  7.6 km/h 8.1 mph /  13 km/h 95 % 0.04 in /  1.02 mm
03:13 45.1 °F /  7.3 °C 43.8 °F /  6.6 °C 30.15 in /  1020.9 hPa South 4.7 mph /  7.6 km/h 10.4 mph /  16.7 km/h 95 % 0.05 in /  1.27 mm
03:18 45.2 °F /  7.3 °C 43.9 °F /  6.6 °C 30.14 in /  1020.5 hPa East 5.7 mph /  9.2 km/h 10.4 mph /  16.7 km/h 95 % 0.05 in /  1.27 mm
03:23 45.1 °F /  7.3 °C 43.8 °F /  6.6 °C 30.14 in /  1020.5 hPa South 7.3 mph /  11.7 km/h 9.2 mph /  14.8 km/h 95 % 0.05 in /  1.27 mm
03:28 45.1 °F /  7.3 °C 43.8 °F /  6.6 °C 30.13 in /  1020.2 hPa SSW 4.1 mph /  6.6 km/h 11.5 mph /  18.5 km/h 95 % 0.06 in /  1.52 mm
03:33 45.2 °F /  7.3 °C 43.9 °F /  6.6 °C 30.14 in /  1020.5 hPa SSW 8.4 mph /  13.5 km/h 17.3 mph /  27.8 km/h 95 % 0.06 in /  1.52 mm
03:38 45.4 °F /  7.4 °C 44.1 °F /  6.7 °C 30.14 in /  1020.5 hPa SSW 9.7 mph /  15.6 km/h 16.0 mph /  25.7 km/h 95 % 0.06 in /  1.52 mm
03:43 45.5 °F /  7.5 °C 44.2 °F /  6.8 °C 30.13 in /  1020.2 hPa SW 5.5 mph /  8.9 km/h 15.0 mph /  24.1 km/h 95 % 0.05 in /  1.27 mm
03:48 45.7 °F /  7.6 °C 44.4 °F /  6.9 °C 30.13 in /  1020.2 hPa SW 6.9 mph /  11.1 km/h 16.1 mph /  25.9 km/h 95 % 0.05 in /  1.27 mm
03:53 45.8 °F /  7.7 °C 44.4 °F /  6.9 °C 30.13 in /  1020.2 hPa South 8.0 mph /  12.9 km/h 12.0 mph /  19.3 km/h 95 % 0.06 in /  1.52 mm
03:58 46.0 °F /  7.8 °C 44.6 °F /  7 °C 30.13 in /  1020.2 hPa SW 9.9 mph /  15.9 km/h 19.6 mph /  31.5 km/h 95 % 0.05 in /  1.27 mm
04:03 46.1 °F /  7.8 °C 44.7 °F /  7.1 °C 30.13 in /  1020.2 hPa WSW 5.8 mph /  9.3 km/h 22.0 mph /  35.4 km/h 95 % 0.05 in /  1.27 mm
04:08 46.3 °F /  7.9 °C 44.9 °F /  7.2 °C 30.13 in /  1020.2 hPa SSW 9.1 mph /  14.6 km/h 13.8 mph /  22.2 km/h 95 % 0.05 in /  1.27 mm
04:13 46.4 °F /  8 °C 45.0 °F /  7.2 °C 30.13 in /  1020.2 hPa SSW 6.0 mph /  9.7 km/h 10.4 mph /  16.7 km/h 95 % 0.05 in /  1.27 mm
04:19 46.5 °F /  8.1 °C 45.1 °F /  7.3 °C 30.14 in /  1020.5 hPa SSW 7.3 mph /  11.7 km/h 10.4 mph /  16.7 km/h 95 % 0.04 in /  1.02 mm
04:24 46.5 °F /  8.1 °C 45.1 °F /  7.3 °C 30.13 in /  1020.2 hPa SSW 14.5 mph /  23.3 km/h 21.9 mph /  35.2 km/h 95 % 0.04 in /  1.02 mm
04:29 46.6 °F /  8.1 °C 45.2 °F /  7.3 °C 30.14 in /  1020.5 hPa SW 10.3 mph /  16.6 km/h 13.8 mph /  22.2 km/h 95 % 0.03 in /  0.76 mm
04:34 46.7 °F /  8.2 °C 45.3 °F /  7.4 °C 30.14 in /  1020.5 hPa SSE 8.3 mph /  13.4 km/h 13.8 mph /  22.2 km/h 95 % 0.03 in /  0.76 mm
04:39 46.7 °F /  8.2 °C 45.3 °F /  7.4 °C 30.14 in /  1020.5 hPa WSW 7.2 mph /  11.6 km/h 11.0 mph /  17.7 km/h 95 % 0.02 in /  0.51 mm
04:44 46.8 °F /  8.2 °C 45.4 °F /  7.4 °C 30.14 in /  1020.5 hPa SSW 6.0 mph /  9.7 km/h 18.0 mph /  29 km/h 95 % 0.00 in /  0 mm
04:49 46.8 °F /  8.2 °C 45.4 °F /  7.4 °C 30.14 in /  1020.5 hPa SSW 7.0 mph /  11.3 km/h 18.0 mph /  29 km/h 95 % 0.00 in /  0 mm
04:54 46.8 °F /  8.2 °C 45.4 °F /  7.4 °C 30.14 in /  1020.5 hPa SSW 6.0 mph /  9.7 km/h 17.0 mph /  27.4 km/h 95 % 0.00 in /  0 mm
04:55 46.8 °F /  8.2 °C 45.4 °F /  7.4 °C 30.14 in /  1020.5 hPa SW 8.1 mph /  13 km/h 10.4 mph /  16.7 km/h 95 % 0.01 in /  0.25 mm
05:00 46.7 °F /  8.2 °C 45.1 °F /  7.3 °C 30.14 in /  1020.5 hPa WSW 9.8 mph /  15.8 km/h 10.4 mph /  16.7 km/h 94 % 0.01 in /  0.25 mm
05:05 46.7 °F /  8.2 °C 45.1 °F /  7.3 °C 30.14 in /  1020.5 hPa SW 10.2 mph /  16.4 km/h 12.0 mph /  19.3 km/h 94 % 0.01 in /  0.25 mm
05:10 46.6 °F /  8.1 °C 45.0 °F /  7.2 °C 30.14 in /  1020.5 hPa SW 7.6 mph /  12.2 km/h 12.7 mph /  20.4 km/h 94 % 0.00 in /  0 mm
05:15 46.6 °F /  8.1 °C 45.0 °F /  7.2 °C 30.15 in /  1020.9 hPa South 6.2 mph /  10 km/h 16.1 mph /  25.9 km/h 94 % 0.00 in /  0 mm
05:20 46.6 °F /  8.1 °C 45.0 °F /  7.2 °C 30.15 in /  1020.9 hPa SW 8.6 mph /  13.8 km/h 17.0 mph /  27.4 km/h 94 % 0.00 in /  0 mm
05:25 46.5 °F /  8.1 °C 44.9 °F /  7.2 °C 30.15 in /  1020.9 hPa WSW 7.4 mph /  11.9 km/h 17.3 mph /  27.8 km/h 94 % 0.00 in /  0 mm
05:30 46.6 °F /  8.1 °C 44.7 °F /  7.1 °C 30.15 in /  1020.9 hPa SW 6.3 mph /  10.1 km/h 10.4 mph /  16.7 km/h 93 % 0.00 in /  0 mm
05:35 46.5 °F /  8.1 °C 44.6 °F /  7 °C 30.16 in /  1021.2 hPa SW 10.2 mph /  16.4 km/h 13.8 mph /  22.2 km/h 93 % 0.00 in /  0 mm
05:40 46.5 °F /  8.1 °C 44.6 °F /  7 °C 30.15 in /  1020.9 hPa SSE 7.2 mph /  11.6 km/h 11.5 mph /  18.5 km/h 93 % 0.00 in /  0 mm
05:45 46.5 °F /  8.1 °C 44.3 °F /  6.8 °C 30.16 in /  1021.2 hPa South 8.1 mph /  13 km/h 11.5 mph /  18.5 km/h 92 % 0.00 in /  0 mm
05:51 46.5 °F /  8.1 °C 44.3 °F /  6.8 °C 30.16 in /  1021.2 hPa WSW 7.1 mph /  11.4 km/h 13.8 mph /  22.2 km/h 92 % 0.00 in /  0 mm
05:56 46.5 °F /  8.1 °C 44.3 °F /  6.8 °C 30.17 in /  1021.6 hPa SSW 6.4 mph /  10.3 km/h 10.4 mph /  16.7 km/h 92 % 0.00 in /  0 mm
06:01 46.5 °F /  8.1 °C 44.3 °F /  6.8 °C 30.17 in /  1021.6 hPa SSW 8.5 mph /  13.7 km/h 12.0 mph /  19.3 km/h 92 % 0.00 in /  0 mm
06:06 46.5 °F /  8.1 °C 44.3 °F /  6.8 °C 30.18 in /  1021.9 hPa South 5.0 mph /  8 km/h 11.5 mph /  18.5 km/h 92 % 0.00 in /  0 mm
06:11 46.4 °F /  8 °C 43.9 °F /  6.6 °C 30.18 in /  1021.9 hPa WSW 5.0 mph /  8 km/h 9.2 mph /  14.8 km/h 91 % 0.00 in /  0 mm
06:16 46.3 °F /  7.9 °C 43.8 °F /  6.6 °C 30.17 in /  1021.6 hPa SSW 8.8 mph /  14.2 km/h 13.8 mph /  22.2 km/h 91 % 0.00 in /  0 mm
06:21 46.2 °F /  7.9 °C 43.7 °F /  6.5 °C 30.18 in /  1021.9 hPa WSW 7.2 mph /  11.6 km/h 11.5 mph /  18.5 km/h 91 % 0.00 in /  0 mm
06:26 46.1 °F /  7.8 °C 43.6 °F /  6.4 °C 30.19 in /  1022.2 hPa South 8.2 mph /  13.2 km/h 11.5 mph /  18.5 km/h 91 % 0.00 in /  0 mm
06:31 46.0 °F /  7.8 °C 43.2 °F /  6.2 °C 30.19 in /  1022.2 hPa WSW 8.8 mph /  14.2 km/h 17.3 mph /  27.8 km/h 90 % 0.00 in /  0 mm
06:36 46.0 °F /  7.8 °C 43.2 °F /  6.2 °C 30.19 in /  1022.2 hPa SSW 10.2 mph /  16.4 km/h 11.5 mph /  18.5 km/h 90 % 0.00 in /  0 mm
06:41 45.8 °F /  7.7 °C 43.0 °F /  6.1 °C 30.20 in /  1022.6 hPa SW 11.7 mph /  18.8 km/h 19.6 mph /  31.5 km/h 90 % 0.00 in /  0 mm
06:46 45.8 °F /  7.7 °C 43.0 °F /  6.1 °C 30.21 in /  1022.9 hPa SSW 6.5 mph /  10.5 km/h 12.7 mph /  20.4 km/h 90 % 0.00 in /  0 mm
06:51 45.6 °F /  7.6 °C 42.5 °F /  5.8 °C 30.21 in /  1022.9 hPa WSW 5.1 mph /  8.2 km/h 12.0 mph /  19.3 km/h 89 % 0.00 in /  0 mm
06:56 45.5 °F /  7.5 °C 42.4 °F /  5.8 °C 30.22 in /  1023.2 hPa SSW 6.0 mph /  9.7 km/h 11.0 mph /  17.7 km/h 89 % 0.00 in /  0 mm
07:11 45.0 °F /  7.2 °C 42.0 °F /  5.6 °C 30.24 in /  1023.9 hPa West 3.0 mph /  4.8 km/h 6.9 mph /  11.1 km/h 89 % 0.00 in /  0 mm
07:16 44.8 °F /  7.1 °C 41.8 °F /  5.4 °C 30.23 in /  1023.6 hPa SW 2.0 mph /  3.2 km/h 4.6 mph /  7.4 km/h 89 % 0.00 in /  0 mm
07:21 44.7 °F /  7.1 °C 41.7 °F /  5.4 °C 30.24 in /  1023.9 hPa SSW 4.0 mph /  6.4 km/h 5.8 mph /  9.3 km/h 89 % 0.00 in /  0 mm
07:26 44.4 °F /  6.9 °C 41.4 °F /  5.2 °C 30.24 in /  1023.9 hPa SW 3.2 mph /  5.1 km/h 5.8 mph /  9.3 km/h 89 % 0.00 in /  0 mm
07:31 44.3 °F /  6.8 °C 41.3 °F /  5.2 °C 30.24 in /  1023.9 hPa West 4.6 mph /  7.4 km/h 8.0 mph /  12.9 km/h 89 % 0.00 in /  0 mm
07:36 44.1 °F /  6.7 °C 41.1 °F /  5.1 °C 30.24 in /  1023.9 hPa SW 3.3 mph /  5.3 km/h 5.0 mph /  8 km/h 89 % 0.00 in /  0 mm
07:41 44.0 °F /  6.7 °C 41.0 °F /  5 °C 30.24 in /  1023.9 hPa WSW 3.7 mph /  6 km/h 5.0 mph /  8 km/h 89 % 0.00 in /  0 mm
07:47 43.9 °F /  6.6 °C 40.9 °F /  4.9 °C 30.24 in /  1023.9 hPa SSW 3.2 mph /  5.1 km/h 10.4 mph /  16.7 km/h 89 % 0.00 in /  0 mm
07:52 43.8 °F /  6.6 °C 40.8 °F /  4.9 °C 30.24 in /  1023.9 hPa SSW 4.7 mph /  7.6 km/h 9.2 mph /  14.8 km/h 89 % 0.00 in /  0 mm
07:57 43.7 °F /  6.5 °C 40.7 °F /  4.8 °C 30.25 in /  1024.3 hPa SSW 3.9 mph /  6.3 km/h 5.8 mph /  9.3 km/h 89 % 0.00 in /  0 mm
08:02 43.7 °F /  6.5 °C 40.7 °F /  4.8 °C 30.25 in /  1024.3 hPa WSW 3.3 mph /  5.3 km/h 9.2 mph /  14.8 km/h 89 % 0.00 in /  0 mm
08:07 43.7 °F /  6.5 °C 40.7 °F /  4.8 °C 30.25 in /  1024.3 hPa SW 3.3 mph /  5.3 km/h 7.0 mph /  11.3 km/h 89 % 0.00 in /  0 mm
08:12 43.7 °F /  6.5 °C 40.7 °F /  4.8 °C 30.25 in /  1024.3 hPa SSW 6.5 mph /  10.5 km/h 10.4 mph /  16.7 km/h 89 % 0.00 in /  0 mm
08:17 43.7 °F /  6.5 °C 40.7 °F /  4.8 °C 30.25 in /  1024.3 hPa SW 5.3 mph /  8.5 km/h 10.4 mph /  16.7 km/h 89 % 0.00 in /  0 mm
08:22 43.8 °F /  6.6 °C 40.8 °F /  4.9 °C 30.25 in /  1024.3 hPa SSW 7.5 mph /  12.1 km/h 11.5 mph /  18.5 km/h 89 % 0.00 in /  0 mm
08:27 43.9 °F /  6.6 °C 40.9 °F /  4.9 °C 30.25 in /  1024.3 hPa SW 8.3 mph /  13.4 km/h 11.5 mph /  18.5 km/h 89 % 0.00 in /  0 mm
08:32 44.0 °F /  6.7 °C 40.7 °F /  4.8 °C 30.25 in /  1024.3 hPa SW 5.2 mph /  8.4 km/h 9.2 mph /  14.8 km/h 88 % 0.00 in /  0 mm
08:37 44.1 °F /  6.7 °C 40.8 °F /  4.9 °C 30.26 in /  1024.6 hPa West 7.1 mph /  11.4 km/h 11.5 mph /  18.5 km/h 88 % 0.00 in /  0 mm
08:42 44.3 °F /  6.8 °C 41.0 °F /  5 °C 30.27 in /  1024.9 hPa SSW 5.7 mph /  9.2 km/h 8.1 mph /  13 km/h 88 % 0.00 in /  0 mm
08:47 44.5 °F /  6.9 °C 40.9 °F /  4.9 °C 30.27 in /  1024.9 hPa WSW 5.3 mph /  8.5 km/h 8.1 mph /  13 km/h 87 % 0.00 in /  0 mm
08:52 44.6 °F /  7 °C 41.0 °F /  5 °C 30.27 in /  1024.9 hPa SW 6.7 mph /  10.8 km/h 9.2 mph /  14.8 km/h 87 % 0.00 in /  0 mm
08:57 44.7 °F /  7.1 °C 41.1 °F /  5.1 °C 30.27 in /  1024.9 hPa SSW 3.9 mph /  6.3 km/h 11.0 mph /  17.7 km/h 87 % 0.00 in /  0 mm
09:02 44.9 °F /  7.2 °C 41.0 °F /  5 °C 30.28 in /  1025.3 hPa WSW 4.5 mph /  7.2 km/h 6.9 mph /  11.1 km/h 86 % 0.00 in /  0 mm
09:08 45.1 °F /  7.3 °C 41.2 °F /  5.1 °C 30.28 in /  1025.3 hPa SW 5.0 mph /  8 km/h 8.1 mph /  13 km/h 86 % 0.00 in /  0 mm
09:13 45.2 °F /  7.3 °C 41.0 °F /  5 °C 30.28 in /  1025.3 hPa SSW 8.1 mph /  13 km/h 13.8 mph /  22.2 km/h 85 % 0.00 in /  0 mm
09:18 45.4 °F /  7.4 °C 41.2 °F /  5.1 °C 30.28 in /  1025.3 hPa SW 3.5 mph /  5.6 km/h 6.9 mph /  11.1 km/h 85 % 0.00 in /  0 mm
09:23 45.6 °F /  7.6 °C 41.0 °F /  5 °C 30.28 in /  1025.3 hPa SSW 7.9 mph /  12.7 km/h 11.5 mph /  18.5 km/h 84 % 0.00 in /  0 mm
09:28 45.9 °F /  7.7 °C 41.3 °F /  5.2 °C 30.29 in /  1025.6 hPa SW 5.3 mph /  8.5 km/h 11.5 mph /  18.5 km/h 84 % 0.00 in /  0 mm
09:33 46.2 °F /  7.9 °C 41.3 °F /  5.2 °C 30.29 in /  1025.6 hPa SSW 7.5 mph /  12.1 km/h 11.5 mph /  18.5 km/h 83 % 0.00 in /  0 mm
09:38 46.5 °F /  8.1 °C 41.6 °F /  5.3 °C 30.29 in /  1025.6 hPa WSW 4.3 mph /  6.9 km/h 5.8 mph /  9.3 km/h 83 % 0.00 in /  0 mm
09:43 46.8 °F /  8.2 °C 41.6 °F /  5.3 °C 30.29 in /  1025.6 hPa SW 6.7 mph /  10.8 km/h 11.5 mph /  18.5 km/h 82 % 0.00 in /  0 mm
09:48 47.0 °F /  8.3 °C 41.8 °F /  5.4 °C 30.30 in /  1026 hPa WSW 5.9 mph /  9.5 km/h 10.4 mph /  16.7 km/h 82 % 0.00 in /  0 mm
09:53 47.4 °F /  8.6 °C 41.9 °F /  5.5 °C 30.30 in /  1026 hPa WSW 5.8 mph /  9.3 km/h 9.2 mph /  14.8 km/h 81 % 0.00 in /  0 mm
09:58 47.7 °F /  8.7 °C 41.8 °F /  5.4 °C 30.29 in /  1025.6 hPa SW 3.9 mph /  6.3 km/h 6.9 mph /  11.1 km/h 80 % 0.00 in /  0 mm
10:03 48.0 °F /  8.9 °C 42.1 °F /  5.6 °C 30.29 in /  1025.6 hPa SW 6.0 mph /  9.7 km/h 9.2 mph /  14.8 km/h 80 % 0.00 in /  0 mm
10:08 48.3 °F /  9.1 °C 42.1 °F /  5.6 °C 30.29 in /  1025.6 hPa SW 4.3 mph /  6.9 km/h 8.0 mph /  12.9 km/h 79 % 0.00 in /  0 mm
10:13 48.6 °F /  9.2 °C 42.0 °F /  5.6 °C 30.29 in /  1025.6 hPa SSW 4.7 mph /  7.6 km/h 6.9 mph /  11.1 km/h 78 % 0.00 in /  0 mm
10:18 48.8 °F /  9.3 °C 42.2 °F /  5.7 °C 30.29 in /  1025.6 hPa SW 5.6 mph /  9 km/h 9.2 mph /  14.8 km/h 78 % 0.00 in /  0 mm
10:23 49.1 °F /  9.5 °C 42.2 °F /  5.7 °C 30.29 in /  1025.6 hPa SW 5.3 mph /  8.5 km/h 11.5 mph /  18.5 km/h 77 % 0.00 in /  0 mm
10:29 49.4 °F /  9.7 °C 42.5 °F /  5.8 °C 30.29 in /  1025.6 hPa SW 1.9 mph /  3.1 km/h 3.5 mph /  5.6 km/h 77 % 0.00 in /  0 mm
10:34 49.6 °F /  9.8 °C 42.3 °F /  5.7 °C 30.28 in /  1025.3 hPa SSW 3.8 mph /  6.1 km/h 5.0 mph /  8 km/h 76 % 0.00 in /  0 mm
10:39 49.9 °F /  9.9 °C 42.6 °F /  5.9 °C 30.29 in /  1025.6 hPa WSW 4.0 mph /  6.4 km/h 5.8 mph /  9.3 km/h 76 % 0.00 in /  0 mm
10:44 50.0 °F /  10 °C 42.0 °F /  5.6 °C 30.29 in /  1025.6 hPa WSW 6.6 mph /  10.6 km/h 9.2 mph /  14.8 km/h 74 % 0.00 in /  0 mm
10:49 50.1 °F /  10.1 °C 42.1 °F /  5.6 °C 30.29 in /  1025.6 hPa West 1.7 mph /  2.7 km/h 4.6 mph /  7.4 km/h 74 % 0.00 in /  0 mm
10:54 50.3 °F /  10.2 °C 42.3 °F /  5.7 °C 30.29 in /  1025.6 hPa WSW 3.6 mph /  5.8 km/h 4.0 mph /  6.4 km/h 74 % 0.00 in /  0 mm
10:59 50.4 °F /  10.2 °C 42.4 °F /  5.8 °C 30.29 in /  1025.6 hPa WNW 2.1 mph /  3.4 km/h 3.5 mph /  5.6 km/h 74 % 0.00 in /  0 mm
11:04 50.5 °F /  10.3 °C 42.2 °F /  5.7 °C 30.30 in /  1026 hPa WNW 2.0 mph /  3.2 km/h 6.0 mph /  9.7 km/h 73 % 0.00 in /  0 mm
11:09 50.6 °F /  10.3 °C 42.2 °F /  5.7 °C 30.29 in /  1025.6 hPa WNW 2.0 mph /  3.2 km/h 8.0 mph /  12.9 km/h 73 % 0.00 in /  0 mm
11:14 50.6 °F /  10.3 °C 41.9 °F /  5.5 °C 30.30 in /  1026 hPa WNW 0.9 mph /  1.4 km/h 3.5 mph /  5.6 km/h 72 % 0.00 in /  0 mm
11:19 50.6 °F /  10.3 °C 41.9 °F /  5.5 °C 30.30 in /  1026 hPa West 2.0 mph /  3.2 km/h 6.0 mph /  9.7 km/h 72 % 0.00 in /  0 mm
11:24 50.6 °F /  10.3 °C 41.6 °F /  5.3 °C 30.29 in /  1025.6 hPa West 2.0 mph /  3.2 km/h 6.0 mph /  9.7 km/h 71 % 0.00 in /  0 mm
11:29 50.6 °F /  10.3 °C 41.6 °F /  5.3 °C 30.29 in /  1025.6 hPa West 3.0 mph /  4.8 km/h 7.0 mph /  11.3 km/h 71 % 0.00 in /  0 mm
11:34 50.6 °F /  10.3 °C 41.9 °F /  5.5 °C 30.29 in /  1025.6 hPa West 3.6 mph /  5.8 km/h 4.0 mph /  6.4 km/h 72 % 0.00 in /  0 mm
11:39 50.7 °F /  10.4 °C 42.0 °F /  5.6 °C 30.28 in /  1025.3 hPa West 1.0 mph /  1.6 km/h 5.0 mph /  8 km/h 72 % 0.00 in /  0 mm
11:44 50.7 °F /  10.4 °C 41.6 °F /  5.3 °C 30.28 in /  1025.3 hPa West 2.5 mph /  4 km/h 3.5 mph /  5.6 km/h 71 % 0.00 in /  0 mm
11:49 50.6 °F /  10.3 °C 41.2 °F /  5.1 °C 30.28 in /  1025.3 hPa WNW 1.0 mph /  1.6 km/h 7.0 mph /  11.3 km/h 70 % 0.00 in /  0 mm
11:54 50.6 °F /  10.3 °C 41.5 °F /  5.3 °C 30.28 in /  1025.3 hPa WSW 3.7 mph /  6 km/h 3.7 mph /  6 km/h 71 % 0.00 in /  0 mm
11:59 50.6 °F /  10.3 °C 41.5 °F /  5.3 °C 30.29 in /  1025.6 hPa SW 0.4 mph /  0.6 km/h 6.9 mph /  11.1 km/h 71 % 0.00 in /  0 mm
12:04 50.7 °F /  10.4 °C 42.0 °F /  5.6 °C 30.28 in /  1025.3 hPa WSW 1.4 mph /  2.3 km/h 4.6 mph /  7.4 km/h 72 % 0.00 in /  0 mm
12:09 50.9 °F /  10.5 °C 41.8 °F /  5.4 °C 30.28 in /  1025.3 hPa SW 2.2 mph /  3.5 km/h 4.6 mph /  7.4 km/h 71 % 0.00 in /  0 mm
12:14 51.0 °F /  10.6 °C 42.3 °F /  5.7 °C 30.27 in /  1024.9 hPa South 1.1 mph /  1.8 km/h 3.5 mph /  5.6 km/h 72 % 0.00 in /  0 mm
12:19 51.3 °F /  10.7 °C 42.2 °F /  5.7 °C 30.27 in /  1024.9 hPa SSW 1.1 mph /  1.8 km/h 3.5 mph /  5.6 km/h 71 % 0.00 in /  0 mm
12:24 51.5 °F /  10.8 °C 42.0 °F /  5.6 °C 30.27 in /  1024.9 hPa West 1.5 mph /  2.4 km/h 4.0 mph /  6.4 km/h 70 % 0.00 in /  0 mm
12:29 51.7 °F /  10.9 °C 41.9 °F /  5.5 °C 30.27 in /  1024.9 hPa SW 2.9 mph /  4.7 km/h 5.8 mph /  9.3 km/h 69 % 0.00 in /  0 mm
12:34 51.9 °F /  11.1 °C 41.7 °F /  5.4 °C 30.27 in /  1024.9 hPa WNW 4.8 mph /  7.7 km/h 8.1 mph /  13 km/h 68 % 0.00 in /  0 mm
12:40 51.9 °F /  11.1 °C 41.7 °F /  5.4 °C 30.26 in /  1024.6 hPa SW 2.4 mph /  3.9 km/h 5.8 mph /  9.3 km/h 68 % 0.00 in /  0 mm
12:45 52.0 °F /  11.1 °C 41.8 °F /  5.4 °C 30.26 in /  1024.6 hPa SW 4.7 mph /  7.6 km/h 5.8 mph /  9.3 km/h 68 % 0.00 in /  0 mm
12:50 52.1 °F /  11.2 °C 41.9 °F /  5.5 °C 30.26 in /  1024.6 hPa West 0.9 mph /  1.4 km/h 2.3 mph /  3.7 km/h 68 % 0.00 in /  0 mm
12:55 52.2 °F /  11.2 °C 42.0 °F /  5.6 °C 30.27 in /  1024.9 hPa SSW 2.2 mph /  3.5 km/h 3.5 mph /  5.6 km/h 68 % 0.00 in /  0 mm
13:00 52.4 °F /  11.3 °C 42.1 °F /  5.6 °C 30.27 in /  1024.9 hPa SSW 5.4 mph /  8.7 km/h 8.0 mph /  12.9 km/h 68 % 0.00 in /  0 mm
13:05 52.6 °F /  11.4 °C 42.3 °F /  5.7 °C 30.26 in /  1024.6 hPa SSW 1.6 mph /  2.6 km/h 5.8 mph /  9.3 km/h 68 % 0.00 in /  0 mm
13:10 52.7 °F /  11.5 °C 42.4 °F /  5.8 °C 30.26 in /  1024.6 hPa WNW 2.7 mph /  4.3 km/h 4.6 mph /  7.4 km/h 68 % 0.00 in /  0 mm
13:15 52.8 °F /  11.6 °C 42.5 °F /  5.8 °C 30.27 in /  1024.9 hPa SW 2.5 mph /  4 km/h 8.1 mph /  13 km/h 68 % 0.00 in /  0 mm
13:20 53.0 °F /  11.7 °C 42.7 °F /  5.9 °C 30.27 in /  1024.9 hPa WSW 1.6 mph /  2.6 km/h 6.9 mph /  11.1 km/h 68 % 0.00 in /  0 mm
13:25 52.9 °F /  11.6 °C 42.6 °F /  5.9 °C 30.27 in /  1024.9 hPa SW 4.2 mph /  6.8 km/h 7.0 mph /  11.3 km/h 68 % 0.00 in /  0 mm
13:30 52.8 °F /  11.6 °C 42.5 °F /  5.8 °C 30.27 in /  1024.9 hPa South 4.0 mph /  6.4 km/h 6.9 mph /  11.1 km/h 68 % 0.00 in /  0 mm
13:35 52.9 °F /  11.6 °C 42.6 °F /  5.9 °C 30.27 in /  1024.9 hPa SW 3.1 mph /  5 km/h 4.6 mph /  7.4 km/h 68 % 0.00 in /  0 mm
13:40 52.9 °F /  11.6 °C 42.6 °F /  5.9 °C 30.27 in /  1024.9 hPa SSW 1.5 mph /  2.4 km/h 3.5 mph /  5.6 km/h 68 % 0.00 in /  0 mm
13:45 52.8 °F /  11.6 °C 42.5 °F /  5.8 °C 30.27 in /  1024.9 hPa SSW 4.6 mph /  7.4 km/h 6.9 mph /  11.1 km/h 68 % 0.00 in /  0 mm
13:50 52.9 °F /  11.6 °C 42.6 °F /  5.9 °C 30.27 in /  1024.9 hPa SW 5.0 mph /  8 km/h 6.9 mph /  11.1 km/h 68 % 0.00 in /  0 mm
13:55 53.0 °F /  11.7 °C 42.7 °F /  5.9 °C 30.26 in /  1024.6 hPa WSW 3.4 mph /  5.5 km/h 6.9 mph /  11.1 km/h 68 % 0.00 in /  0 mm
14:03 53.1 °F /  11.7 °C 42.0 °F /  5.6 °C 30.26 in /  1024.6 hPa WSW 4.0 mph /  6.4 km/h 4.0 mph /  6.4 km/h 66 % 0.00 in /  0 mm
14:08 53.3 °F /  11.8 °C 42.2 °F /  5.7 °C 30.27 in /  1024.9 hPa WNW 2.1 mph /  3.4 km/h 4.6 mph /  7.4 km/h 66 % 0.00 in /  0 mm
14:13 53.4 °F /  11.9 °C 42.3 °F /  5.7 °C 30.27 in /  1024.9 hPa North 1.7 mph /  2.7 km/h 3.0 mph /  4.8 km/h 66 % 0.00 in /  0 mm
14:18 53.3 °F /  11.8 °C 41.8 °F /  5.4 °C 30.26 in /  1024.6 hPa WSW 1.9 mph /  3.1 km/h 6.9 mph /  11.1 km/h 65 % 0.00 in /  0 mm
14:23 53.3 °F /  11.8 °C 41.8 °F /  5.4 °C 30.26 in /  1024.6 hPa West 4.1 mph /  6.6 km/h 6.9 mph /  11.1 km/h 65 % 0.00 in /  0 mm
14:28 53.3 °F /  11.8 °C 41.8 °F /  5.4 °C 30.27 in /  1024.9 hPa SSW 0.5 mph /  0.8 km/h 4.6 mph /  7.4 km/h 65 % 0.00 in /  0 mm
14:33 53.3 °F /  11.8 °C 41.8 °F /  5.4 °C 30.26 in /  1024.6 hPa SW 1.2 mph /  1.9 km/h 2.3 mph /  3.7 km/h 65 % 0.00 in /  0 mm
14:38 53.2 °F /  11.8 °C 41.7 °F /  5.4 °C 30.26 in /  1024.6 hPa West 1.9 mph /  3.1 km/h 3.5 mph /  5.6 km/h 65 % 0.00 in /  0 mm
14:43 53.1 °F /  11.7 °C 41.6 °F /  5.3 °C 30.26 in /  1024.6 hPa West 0.3 mph /  0.5 km/h 3.5 mph /  5.6 km/h 65 % 0.00 in /  0 mm
14:48 53.1 °F /  11.7 °C 41.6 °F /  5.3 °C 30.26 in /  1024.6 hPa West 1.0 mph /  1.6 km/h 2.3 mph /  3.7 km/h 65 % 0.00 in /  0 mm
14:53 53.0 °F /  11.7 °C 41.5 °F /  5.3 °C 30.26 in /  1024.6 hPa WSW 0.2 mph /  0.3 km/h 1.2 mph /  1.9 km/h 65 % 0.00 in /  0 mm
14:58 53.0 °F /  11.7 °C 41.5 °F /  5.3 °C 30.27 in /  1024.9 hPa SSW 0.9 mph /  1.4 km/h 2.3 mph /  3.7 km/h 65 % 0.00 in /  0 mm
15:03 53.0 °F /  11.7 °C 41.9 °F /  5.5 °C 30.26 in /  1024.6 hPa SSW 0.2 mph /  0.3 km/h 2.3 mph /  3.7 km/h 66 % 0.00 in /  0 mm
15:09 52.9 °F /  11.6 °C 41.0 °F /  5 °C 30.26 in /  1024.6 hPa South 3.1 mph /  5 km/h 4.0 mph /  6.4 km/h 64 % 0.00 in /  0 mm
15:14 52.9 °F /  11.6 °C 41.8 °F /  5.4 °C 30.26 in /  1024.6 hPa South 0.1 mph /  0.2 km/h 3.0 mph /  4.8 km/h 66 % 0.00 in /  0 mm
15:19 52.7 °F /  11.5 °C 41.7 °F /  5.4 °C 30.26 in /  1024.6 hPa South 0.4 mph /  0.6 km/h 2.3 mph /  3.7 km/h 66 % 0.00 in /  0 mm
15:24 52.6 °F /  11.4 °C 41.2 °F /  5.1 °C 30.26 in /  1024.6 hPa SSE 0.4 mph /  0.6 km/h   65 % 0.00 in /  0 mm
15:29 52.5 °F /  11.4 °C 41.1 °F /  5.1 °C 30.25 in /  1024.3 hPa South 1.7 mph /  2.7 km/h 3.5 mph /  5.6 km/h 65 % 0.00 in /  0 mm
15:34 52.4 °F /  11.3 °C 41.4 °F /  5.2 °C 30.26 in /  1024.6 hPa Calm   3.0 mph /  4.8 km/h 66 % 0.00 in /  0 mm
15:39 52.2 °F /  11.2 °C 41.2 °F /  5.1 °C 30.26 in /  1024.6 hPa Calm   2.0 mph /  3.2 km/h 66 % 0.00 in /  0 mm
15:44 52.1 °F /  11.2 °C 41.1 °F /  5.1 °C 30.25 in /  1024.3 hPa South 1.0 mph /  1.6 km/h 3.0 mph /  4.8 km/h 66 % 0.00 in /  0 mm
15:49 51.8 °F /  11 °C 41.2 °F /  5.1 °C 30.25 in /  1024.3 hPa Calm   2.0 mph /  3.2 km/h 67 % 0.00 in /  0 mm
15:54 51.7 °F /  10.9 °C 41.1 °F /  5.1 °C 30.25 in /  1024.3 hPa SSE 1.0 mph /  1.6 km/h 3.0 mph /  4.8 km/h 67 % 0.00 in /  0 mm
15:59 51.5 °F /  10.8 °C 40.9 °F /  4.9 °C 30.25 in /  1024.3 hPa Calm     67 % 0.00 in /  0 mm
16:04 51.3 °F /  10.7 °C 40.7 °F /  4.8 °C 30.25 in /  1024.3 hPa Calm   2.0 mph /  3.2 km/h 67 % 0.00 in /  0 mm
16:09 51.1 °F /  10.6 °C 40.9 °F /  4.9 °C 30.25 in /  1024.3 hPa SSE 1.0 mph /  1.6 km/h 3.0 mph /  4.8 km/h 68 % 0.00 in /  0 mm
16:14 50.9 °F /  10.5 °C 40.7 °F /  4.8 °C 30.25 in /  1024.3 hPa Calm   2.0 mph /  3.2 km/h 68 % 0.00 in /  0 mm
16:19 50.7 °F /  10.4 °C 40.9 °F /  4.9 °C 30.26 in /  1024.6 hPa Calm   2.0 mph /  3.2 km/h 69 % 0.00 in /  0 mm
16:24 50.4 °F /  10.2 °C 40.6 °F /  4.8 °C 30.26 in /  1024.6 hPa South 0.1 mph /  0.2 km/h   69 % 0.00 in /  0 mm
16:29 50.1 °F /  10.1 °C 40.3 °F /  4.6 °C 30.27 in /  1024.9 hPa South 1.0 mph /  1.6 km/h 2.0 mph /  3.2 km/h 69 % 0.00 in /  0 mm
16:34 49.7 °F /  9.8 °C 40.3 °F /  4.6 °C 30.26 in /  1024.6 hPa Calm   4.0 mph /  6.4 km/h 70 % 0.00 in /  0 mm
16:39 49.3 °F /  9.6 °C 40.3 °F /  4.6 °C 30.26 in /  1024.6 hPa SSE 2.0 mph /  3.2 km/h 5.0 mph /  8 km/h 71 % 0.00 in /  0 mm
16:44 49.1 °F /  9.5 °C 40.8 °F /  4.9 °C 30.26 in /  1024.6 hPa South 2.0 mph /  3.2 km/h 5.0 mph /  8 km/h 73 % 0.00 in /  0 mm
16:49 48.8 °F /  9.3 °C 40.9 °F /  4.9 °C 30.26 in /  1024.6 hPa South 3.0 mph /  4.8 km/h 9.0 mph /  14.5 km/h 74 % 0.00 in /  0 mm
16:54 48.5 °F /  9.2 °C 40.9 °F /  4.9 °C 30.26 in /  1024.6 hPa South 1.0 mph /  1.6 km/h 5.0 mph /  8 km/h 75 % 0.00 in /  0 mm
16:59 48.1 °F /  8.9 °C 40.9 °F /  4.9 °C 30.26 in /  1024.6 hPa South 2.2 mph /  3.5 km/h 5.8 mph /  9.3 km/h 76 % 0.00 in /  0 mm
17:04 47.7 °F /  8.7 °C 40.5 °F /  4.7 °C 30.26 in /  1024.6 hPa South 1.8 mph /  2.9 km/h 3.5 mph /  5.6 km/h 76 % 0.00 in /  0 mm
17:09 47.4 °F /  8.6 °C 40.6 °F /  4.8 °C 30.26 in /  1024.6 hPa South 2.7 mph /  4.3 km/h 6.0 mph /  9.7 km/h 77 % 0.00 in /  0 mm
17:14 46.9 °F /  8.3 °C 40.4 °F /  4.7 °C 30.26 in /  1024.6 hPa SSW 2.8 mph /  4.5 km/h 5.8 mph /  9.3 km/h 78 % 0.00 in /  0 mm
17:19 46.5 °F /  8.1 °C 40.3 °F /  4.6 °C 30.26 in /  1024.6 hPa SSE 3.1 mph /  5 km/h 4.6 mph /  7.4 km/h 79 % 0.00 in /  0 mm
17:24 46.2 °F /  7.9 °C 40.0 °F /  4.4 °C 30.26 in /  1024.6 hPa SE 3.9 mph /  6.3 km/h 6.9 mph /  11.1 km/h 79 % 0.00 in /  0 mm
17:29 45.9 °F /  7.7 °C 40.1 °F /  4.5 °C 30.26 in /  1024.6 hPa SSW 2.1 mph /  3.4 km/h 5.0 mph /  8 km/h 80 % 0.00 in /  0 mm
17:34 45.7 °F /  7.6 °C 40.2 °F /  4.6 °C 30.26 in /  1024.6 hPa South 3.1 mph /  5 km/h 5.0 mph /  8 km/h 81 % 0.00 in /  0 mm
17:40 45.4 °F /  7.4 °C 40.2 °F /  4.6 °C 30.25 in /  1024.3 hPa South 3.6 mph /  5.8 km/h 6.9 mph /  11.1 km/h 82 % 0.00 in /  0 mm
17:45 45.1 °F /  7.3 °C 40.2 °F /  4.6 °C 30.26 in /  1024.6 hPa South 4.0 mph /  6.4 km/h 6.9 mph /  11.1 km/h 83 % 0.00 in /  0 mm
17:50 44.9 °F /  7.2 °C 40.0 °F /  4.4 °C 30.26 in /  1024.6 hPa SSW 3.5 mph /  5.6 km/h 5.8 mph /  9.3 km/h 83 % 0.00 in /  0 mm
17:55 44.8 °F /  7.1 °C 40.3 °F /  4.6 °C 30.25 in /  1024.3 hPa South 4.2 mph /  6.8 km/h 6.0 mph /  9.7 km/h 84 % 0.00 in /  0 mm
18:00 44.6 °F /  7 °C 40.4 °F /  4.7 °C 30.25 in /  1024.3 hPa South 3.3 mph /  5.3 km/h 5.0 mph /  8 km/h 85 % 0.00 in /  0 mm
18:05 44.5 °F /  6.9 °C 40.6 °F /  4.8 °C 30.26 in /  1024.6 hPa SSW 2.6 mph /  4.2 km/h 8.1 mph /  13 km/h 86 % 0.00 in /  0 mm
18:10 44.3 °F /  6.8 °C 40.7 °F /  4.8 °C 30.26 in /  1024.6 hPa SSE 3.3 mph /  5.3 km/h 5.8 mph /  9.3 km/h 87 % 0.00 in /  0 mm
18:15 44.3 °F /  6.8 °C 40.7 °F /  4.8 °C 30.27 in /  1024.9 hPa South 4.1 mph /  6.6 km/h 6.9 mph /  11.1 km/h 87 % 0.00 in /  0 mm
18:16 44.2 °F /  6.8 °C 40.6 °F /  4.8 °C 30.26 in /  1024.6 hPa South 2.1 mph /  3.4 km/h 6.9 mph /  11.1 km/h 87 % 0.00 in /  0 mm
18:21 44.2 °F /  6.8 °C 40.9 °F /  4.9 °C 30.27 in /  1024.9 hPa SSE 5.7 mph /  9.2 km/h 9.2 mph /  14.8 km/h 88 % 0.00 in /  0 mm
18:26 44.2 °F /  6.8 °C 40.9 °F /  4.9 °C 30.27 in /  1024.9 hPa South 2.4 mph /  3.9 km/h 6.9 mph /  11.1 km/h 88 % 0.00 in /  0 mm
18:31 44.1 °F /  6.7 °C 40.8 °F /  4.9 °C 30.27 in /  1024.9 hPa South 3.9 mph /  6.3 km/h 7.0 mph /  11.3 km/h 88 % 0.00 in /  0 mm
18:36 44.2 °F /  6.8 °C 41.2 °F /  5.1 °C 30.27 in /  1024.9 hPa SSW 3.6 mph /  5.8 km/h 6.9 mph /  11.1 km/h 89 % 0.00 in /  0 mm
18:41 44.2 °F /  6.8 °C 41.5 °F /  5.3 °C 30.27 in /  1024.9 hPa SSW 4.5 mph /  7.2 km/h 8.1 mph /  13 km/h 90 % 0.00 in /  0 mm
18:46 44.2 °F /  6.8 °C 41.5 °F /  5.3 °C 30.27 in /  1024.9 hPa South 2.5 mph /  4 km/h 3.5 mph /  5.6 km/h 90 % 0.00 in /  0 mm
18:52 44.2 °F /  6.8 °C 41.5 °F /  5.3 °C 30.26 in /  1024.6 hPa South 2.9 mph /  4.7 km/h 4.6 mph /  7.4 km/h 90 % 0.00 in /  0 mm
18:57 44.2 °F /  6.8 °C 41.5 °F /  5.3 °C 30.26 in /  1024.6 hPa SE 4.2 mph /  6.8 km/h 5.8 mph /  9.3 km/h 90 % 0.00 in /  0 mm
19:02 44.2 °F /  6.8 °C 41.7 °F /  5.4 °C 30.26 in /  1024.6 hPa South 4.6 mph /  7.4 km/h 5.8 mph /  9.3 km/h 91 % 0.00 in /  0 mm
19:07 44.2 °F /  6.8 °C 41.7 °F /  5.4 °C 30.26 in /  1024.6 hPa SSE 1.1 mph /  1.8 km/h 5.8 mph /  9.3 km/h 91 % 0.00 in /  0 mm
19:12 44.2 °F /  6.8 °C 41.7 °F /  5.4 °C 30.26 in /  1024.6 hPa SSE 1.7 mph /  2.7 km/h 4.0 mph /  6.4 km/h 91 % 0.00 in /  0 mm
19:17 44.2 °F /  6.8 °C 41.7 °F /  5.4 °C 30.26 in /  1024.6 hPa SSE 0.9 mph /  1.4 km/h 3.5 mph /  5.6 km/h 91 % 0.00 in /  0 mm
19:22 44.2 °F /  6.8 °C 41.7 °F /  5.4 °C 30.25 in /  1024.3 hPa South 1.2 mph /  1.9 km/h 3.5 mph /  5.6 km/h 91 % 0.00 in /  0 mm
19:27 44.2 °F /  6.8 °C 41.7 °F /  5.4 °C 30.26 in /  1024.6 hPa South 0.5 mph /  0.8 km/h 3.0 mph /  4.8 km/h 91 % 0.00 in /  0 mm
19:32 44.2 °F /  6.8 °C 41.7 °F /  5.4 °C 30.26 in /  1024.6 hPa South 2.8 mph /  4.5 km/h 7.0 mph /  11.3 km/h 91 % 0.00 in /  0 mm
19:37 44.3 °F /  6.8 °C 42.1 °F /  5.6 °C 30.25 in /  1024.3 hPa South 0.6 mph /  1 km/h 1.2 mph /  1.9 km/h 92 % 0.00 in /  0 mm
19:42 44.3 °F /  6.8 °C 42.1 °F /  5.6 °C 30.26 in /  1024.6 hPa SW 4.5 mph /  7.2 km/h 5.8 mph /  9.3 km/h 92 % 0.00 in /  0 mm
19:47 44.4 °F /  6.9 °C 42.2 °F /  5.7 °C 30.24 in /  1023.9 hPa South 0.8 mph /  1.3 km/h 3.5 mph /  5.6 km/h 92 % 0.00 in /  0 mm
19:52 44.5 °F /  6.9 °C 42.6 °F /  5.9 °C 30.23 in /  1023.6 hPa South 3.3 mph /  5.3 km/h 5.8 mph /  9.3 km/h 93 % 0.00 in /  0 mm
19:57 44.7 °F /  7.1 °C 42.8 °F /  6 °C 30.22 in /  1023.2 hPa SE 1.1 mph /  1.8 km/h 3.5 mph /  5.6 km/h 93 % 0.00 in /  0 mm
20:02 44.8 °F /  7.1 °C 42.9 °F /  6.1 °C 30.21 in /  1022.9 hPa SSE 2.5 mph /  4 km/h 3.5 mph /  5.6 km/h 93 % 0.00 in /  0 mm
20:07 44.8 °F /  7.1 °C 42.6 °F /  5.9 °C 30.22 in /  1023.2 hPa SE 0.8 mph /  1.3 km/h 3.5 mph /  5.6 km/h 92 % 0.00 in /  0 mm
20:12 44.8 °F /  7.1 °C 42.6 °F /  5.9 °C 30.23 in /  1023.6 hPa SW 1.2 mph /  1.9 km/h 3.5 mph /  5.6 km/h 92 % 0.00 in /  0 mm
20:17 44.9 °F /  7.2 °C 42.7 °F /  5.9 °C 30.23 in /  1023.6 hPa Calm     92 % 0.00 in /  0 mm
20:22 44.9 °F /  7.2 °C 42.7 °F /  5.9 °C 30.23 in /  1023.6 hPa Calm   1.2 mph /  1.9 km/h 92 % 0.00 in /  0 mm
20:28 44.9 °F /  7.2 °C 42.7 °F /  5.9 °C 30.23 in /  1023.6 hPa SW 1.7 mph /  2.7 km/h 3.5 mph /  5.6 km/h 92 % 0.00 in /  0 mm
20:33 44.9 °F /  7.2 °C 42.7 °F /  5.9 °C 30.23 in /  1023.6 hPa Calm   1.2 mph /  1.9 km/h 92 % 0.00 in /  0 mm
20:38 45.0 °F /  7.2 °C 42.8 °F /  6 °C 30.23 in /  1023.6 hPa Calm     92 % 0.00 in /  0 mm
20:43 45.0 °F /  7.2 °C 42.8 °F /  6 °C 30.23 in /  1023.6 hPa Calm   1.2 mph /  1.9 km/h 92 % 0.00 in /  0 mm
20:48 45.1 °F /  7.3 °C 42.9 °F /  6.1 °C 30.23 in /  1023.6 hPa WSW 0.1 mph /  0.2 km/h 3.5 mph /  5.6 km/h 92 % 0.00 in /  0 mm
20:53 45.1 °F /  7.3 °C 42.9 °F /  6.1 °C 30.22 in /  1023.2 hPa Calm     92 % 0.00 in /  0 mm
20:58 45.1 °F /  7.3 °C 42.6 °F /  5.9 °C 30.22 in /  1023.2 hPa Calm   3.5 mph /  5.6 km/h 91 % 0.00 in /  0 mm
21:03 45.1 °F /  7.3 °C 42.6 °F /  5.9 °C 30.23 in /  1023.6 hPa Calm   2.3 mph /  3.7 km/h 91 % 0.00 in /  0 mm
21:08 45.2 °F /  7.3 °C 42.7 °F /  5.9 °C 30.23 in /  1023.6 hPa WSW 1.8 mph /  2.9 km/h 4.6 mph /  7.4 km/h 91 % 0.00 in /  0 mm
21:13 45.2 °F /  7.3 °C 42.7 °F /  5.9 °C 30.23 in /  1023.6 hPa WSW 0.5 mph /  0.8 km/h 1.2 mph /  1.9 km/h 91 % 0.00 in /  0 mm
21:18 45.2 °F /  7.3 °C 42.4 °F /  5.8 °C 30.22 in /  1023.2 hPa Calm   1.2 mph /  1.9 km/h 90 % 0.00 in /  0 mm
21:23 45.2 °F /  7.3 °C 42.4 °F /  5.8 °C 30.23 in /  1023.6 hPa Calm     90 % 0.00 in /  0 mm
21:28 45.2 °F /  7.3 °C 42.4 °F /  5.8 °C 30.23 in /  1023.6 hPa Calm   1.2 mph /  1.9 km/h 90 % 0.00 in /  0 mm
21:33 45.1 °F /  7.3 °C 42.3 °F /  5.7 °C 30.23 in /  1023.6 hPa WSW 0.1 mph /  0.2 km/h 2.3 mph /  3.7 km/h 90 % 0.00 in /  0 mm
21:38 45.0 °F /  7.2 °C 42.2 °F /  5.7 °C 30.24 in /  1023.9 hPa Calm     90 % 0.00 in /  0 mm
21:43 44.9 °F /  7.2 °C 42.1 °F /  5.6 °C 30.24 in /  1023.9 hPa WSW 0.4 mph /  0.6 km/h 1.2 mph /  1.9 km/h 90 % 0.00 in /  0 mm
21:48 44.9 °F /  7.2 °C 42.1 °F /  5.6 °C 30.24 in /  1023.9 hPa WSW 0.8 mph /  1.3 km/h 2.3 mph /  3.7 km/h 90 % 0.00 in /  0 mm
21:53 44.8 °F /  7.1 °C 42.0 °F /  5.6 °C 30.24 in /  1023.9 hPa SW 2.9 mph /  4.7 km/h 3.5 mph /  5.6 km/h 90 % 0.00 in /  0 mm
21:58 44.8 °F /  7.1 °C 42.3 °F /  5.7 °C 30.24 in /  1023.9 hPa SW 1.0 mph /  1.6 km/h 3.5 mph /  5.6 km/h 91 % 0.00 in /  0 mm
22:04 44.8 °F /  7.1 °C 42.3 °F /  5.7 °C 30.24 in /  1023.9 hPa WSW 1.5 mph /  2.4 km/h 4.0 mph /  6.4 km/h 91 % 0.00 in /  0 mm
22:09 44.8 °F /  7.1 °C 42.3 °F /  5.7 °C 30.24 in /  1023.9 hPa Calm     91 % 0.00 in /  0 mm
22:14 44.9 °F /  7.2 °C 42.7 °F /  5.9 °C 30.24 in /  1023.9 hPa SW 1.3 mph /  2.1 km/h 3.5 mph /  5.6 km/h 92 % 0.00 in /  0 mm
22:19 44.8 °F /  7.1 °C 42.6 °F /  5.9 °C 30.23 in /  1023.6 hPa Calm     92 % 0.00 in /  0 mm
22:24 44.9 °F /  7.2 °C 42.7 °F /  5.9 °C 30.23 in /  1023.6 hPa West 1.2 mph /  1.9 km/h 3.5 mph /  5.6 km/h 92 % 0.01 in /  0.25 mm
22:29 44.9 °F /  7.2 °C 43.0 °F /  6.1 °C 30.23 in /  1023.6 hPa Calm   2.0 mph /  3.2 km/h 93 % 0.00 in /  0 mm
22:34 44.9 °F /  7.2 °C 43.0 °F /  6.1 °C 30.22 in /  1023.2 hPa Calm   1.0 mph /  1.6 km/h 93 % 0.00 in /  0 mm
22:39 45.0 °F /  7.2 °C 43.1 °F /  6.2 °C 30.22 in /  1023.2 hPa Calm   3.0 mph /  4.8 km/h 93 % 0.00 in /  0 mm
22:44 45.0 °F /  7.2 °C 43.1 °F /  6.2 °C 30.21 in /  1022.9 hPa Calm   3.0 mph /  4.8 km/h 93 % 0.00 in /  0 mm
22:49 45.2 °F /  7.3 °C 43.6 °F /  6.4 °C 30.21 in /  1022.9 hPa SSW 1.0 mph /  1.6 km/h 4.0 mph /  6.4 km/h 94 % 0.00 in /  0 mm
22:54 45.4 °F /  7.4 °C 43.8 °F /  6.6 °C 30.20 in /  1022.6 hPa South 1.0 mph /  1.6 km/h 4.0 mph /  6.4 km/h 94 % 0.00 in /  0 mm
22:59 45.6 °F /  7.6 °C 44.3 °F /  6.8 °C 30.19 in /  1022.2 hPa SE 0.1 mph /  0.2 km/h 1.2 mph /  1.9 km/h 95 % 0.05 in /  1.27 mm
23:04 45.7 °F /  7.6 °C 44.4 °F /  6.9 °C 30.19 in /  1022.2 hPa South 3.5 mph /  5.6 km/h 6.9 mph /  11.1 km/h 95 % 0.05 in /  1.27 mm
23:09 45.9 °F /  7.7 °C 44.5 °F /  6.9 °C 30.18 in /  1021.9 hPa SSE 2.2 mph /  3.5 km/h 4.6 mph /  7.4 km/h 95 % 0.06 in /  1.52 mm
23:14 46.0 °F /  7.8 °C 44.6 °F /  7 °C 30.18 in /  1021.9 hPa SSE 2.9 mph /  4.7 km/h 3.5 mph /  5.6 km/h 95 % 0.06 in /  1.52 mm
23:19 46.2 °F /  7.9 °C 44.8 °F /  7.1 °C 30.18 in /  1021.9 hPa South 1.1 mph /  1.8 km/h 5.8 mph /  9.3 km/h 95 % 0.05 in /  1.27 mm
23:24 46.2 °F /  7.9 °C 44.8 °F /  7.1 °C 30.18 in /  1021.9 hPa SSW 2.1 mph /  3.4 km/h 4.0 mph /  6.4 km/h 95 % 0.06 in /  1.52 mm
23:29 46.3 °F /  7.9 °C 44.9 °F /  7.2 °C 30.18 in /  1021.9 hPa WSW 2.7 mph /  4.3 km/h 6.0 mph /  9.7 km/h 95 % 0.05 in /  1.27 mm
23:34 46.4 °F /  8 °C 45.0 °F /  7.2 °C 30.18 in /  1021.9 hPa SSW 2.2 mph /  3.5 km/h 5.0 mph /  8 km/h 95 % 0.05 in /  1.27 mm
23:40 46.5 °F /  8.1 °C 45.4 °F /  7.4 °C 30.17 in /  1021.6 hPa SW 3.3 mph /  5.3 km/h 4.6 mph /  7.4 km/h 96 % 0.05 in /  1.27 mm
23:45 46.6 °F /  8.1 °C 45.5 °F /  7.5 °C 30.17 in /  1021.6 hPa SW 2.2 mph /  3.5 km/h 5.8 mph /  9.3 km/h 96 % 0.05 in /  1.27 mm
23:50 46.7 °F /  8.2 °C 45.6 °F /  7.6 °C 30.17 in /  1021.6 hPa SSW 1.0 mph /  1.6 km/h 3.5 mph /  5.6 km/h 96 % 0.04 in /  1.02 mm
23:55 46.8 °F /  8.2 °C 45.7 °F /  7.6 °C 30.17 in /  1021.6 hPa South 2.4 mph /  3.9 km/h 5.8 mph /  9.3 km/h 96 % 0.05 in /  1.27 mm
Crab Meadow Weather
Compliments of Weather Underground - 3 mb

Script developed by  Jim McMurry - jmcmurry@mwt.net Adapted for the template by  Wim van der Kuil - Leuven-Template.eu

Weather Terms: Wind Chill - An apparent temperature that describes the combined effect of wind and low temperature on exposed skin.